SFJ55 RJTT-RJFF
Flight info
| Callsign | SFJ55 |
|---|---|
| Flight time | 1h 31m |
| Altitude | 32000 |
| Route | LAYER TIARA DCT GUSRO Y20 KIRIN |
| Aircraft | A320/M-SDE3FGHIRWY/LB1 |
Departure
| Time | 2026-05-07 11:46 |
|---|---|
| Airport | Tokyo Haneda International Airport (RJTT) |
Arrival
| Time | 2026-05-07 13:17 |
|---|---|
| Airport | Fukuoka Airport (RJFF) |
| Time | Latitude | Longitude | Altitude | Speed | Heading |
|---|---|---|---|---|---|
| 2026-05-07 11:21 | 35.54540 | 139.78710 | 29 ft | 0 kts | 330° |
| 2026-05-07 11:33 | 35.54539 | 139.78711 | 29 ft | 2 kts | 330° |
| 2026-05-07 11:33 | 35.54515 | 139.78723 | 29 ft | 4 kts | 349° |
| 2026-05-07 11:33 | 35.54489 | 139.78725 | 30 ft | 4 kts | 7° |
| 2026-05-07 11:34 | 35.54463 | 139.78718 | 30 ft | 4 kts | 22° |
| 2026-05-07 11:34 | 35.54439 | 139.78703 | 30 ft | 4 kts | 34° |
| 2026-05-07 11:34 | 35.54419 | 139.78683 | 29 ft | 4 kts | 51° |
| 2026-05-07 11:34 | 35.54412 | 139.78672 | 29 ft | 1 kts | 60° |
| 2026-05-07 11:38 | 35.54415 | 139.78680 | 29 ft | 7 kts | 63° |
| 2026-05-07 11:38 | 35.54431 | 139.78753 | 31 ft | 14 kts | 81° |
| 2026-05-07 11:39 | 35.54443 | 139.78849 | 34 ft | 8 kts | 81° |
| 2026-05-07 11:39 | 35.54454 | 139.78895 | 37 ft | 4 kts | 64° |
| 2026-05-07 11:39 | 35.54513 | 139.79025 | 39 ft | 26 kts | 59° |
| 2026-05-07 11:39 | 35.54604 | 139.79215 | 31 ft | 25 kts | 59° |
| 2026-05-07 11:40 | 35.54693 | 139.79401 | 28 ft | 23 kts | 60° |
| 2026-05-07 11:40 | 35.54763 | 139.79551 | 30 ft | 20 kts | 59° |
| 2026-05-07 11:40 | 35.54837 | 139.79641 | 29 ft | 12 kts | 350° |
| 2026-05-07 11:40 | 35.54909 | 139.79595 | 27 ft | 11 kts | 330° |
| 2026-05-07 11:41 | 35.54968 | 139.79551 | 26 ft | 10 kts | 328° |
| 2026-05-07 11:41 | 35.55044 | 139.79495 | 27 ft | 16 kts | 330° |
| 2026-05-07 11:41 | 35.55163 | 139.79411 | 27 ft | 24 kts | 329° |
| 2026-05-07 11:41 | 35.55319 | 139.79294 | 27 ft | 25 kts | 329° |
| 2026-05-07 11:42 | 35.55478 | 139.79190 | 27 ft | 27 kts | 330° |
| 2026-05-07 11:42 | 35.55638 | 139.79074 | 31 ft | 27 kts | 330° |
| 2026-05-07 11:42 | 35.55804 | 139.78955 | 26 ft | 28 kts | 330° |
| 2026-05-07 11:42 | 35.55967 | 139.78844 | 24 ft | 27 kts | 331° |
| 2026-05-07 11:43 | 35.56126 | 139.78730 | 24 ft | 26 kts | 328° |
| 2026-05-07 11:43 | 35.56279 | 139.78620 | 26 ft | 24 kts | 330° |
| 2026-05-07 11:43 | 35.56392 | 139.78544 | 28 ft | 14 kts | 348° |
| 2026-05-07 11:43 | 35.56445 | 139.78602 | 30 ft | 8 kts | 60° |
| 2026-05-07 11:44 | 35.56451 | 139.78615 | 26 ft | 0 kts | 60° |
| 2026-05-07 11:44 | 35.56465 | 139.78647 | 28 ft | 8 kts | 61° |
| 2026-05-07 11:44 | 35.56470 | 139.78734 | 30 ft | 15 kts | 124° |
| 2026-05-07 11:45 | 35.56372 | 139.78809 | 29 ft | 13 kts | 150° |
| 2026-05-07 11:45 | 35.56229 | 139.78907 | 26 ft | 49 kts | 151° |
| 2026-05-07 11:45 | 35.55728 | 139.79263 | 27 ft | 115 kts | 149° |
| 2026-05-07 11:45 | 35.54894 | 139.79857 | 33 ft | 164 kts | 150° |
| 2026-05-07 11:46 | 35.54044 | 139.80494 | 335 ft | 174 kts | 150° |
| 2026-05-07 11:46 | 35.53108 | 139.81186 | 989 ft | 171 kts | 152° |
| 2026-05-07 11:46 | 35.52181 | 139.82111 | 1694 ft | 175 kts | 137° |
| 2026-05-07 11:46 | 35.51300 | 139.83269 | 2093 ft | 197 kts | 136° |
| 2026-05-07 11:47 | 35.50333 | 139.84586 | 2431 ft | 218 kts | 136° |
| 2026-05-07 11:47 | 35.49264 | 139.86026 | 2885 ft | 239 kts | 137° |
| 2026-05-07 11:47 | 35.48134 | 139.87633 | 3452 ft | 258 kts | 127° |
| 2026-05-07 11:47 | 35.47542 | 139.89646 | 4284 ft | 271 kts | 99° |
| 2026-05-07 11:48 | 35.47814 | 139.91962 | 5112 ft | 283 kts | 67° |
| 2026-05-07 11:48 | 35.49056 | 139.93849 | 5897 ft | 290 kts | 33° |
| 2026-05-07 11:48 | 35.50929 | 139.94688 | 6710 ft | 289 kts | 4° |
| 2026-05-07 11:48 | 35.52912 | 139.94891 | 7544 ft | 291 kts | 1° |
| 2026-05-07 11:49 | 35.54943 | 139.95071 | 8349 ft | 294 kts | 1° |
| 2026-05-07 11:49 | 35.56996 | 139.95253 | 9119 ft | 297 kts | 1° |
| 2026-05-07 11:49 | 35.59074 | 139.95442 | 9846 ft | 301 kts | 1° |
| 2026-05-07 11:49 | 35.61178 | 139.95638 | 10558 ft | 305 kts | 1° |
| 2026-05-07 11:50 | 35.63310 | 139.95842 | 11137 ft | 315 kts | 0° |
| 2026-05-07 11:50 | 35.65497 | 139.96047 | 11325 ft | 337 kts | 0° |
| 2026-05-07 11:50 | 35.67906 | 139.96016 | 11500 ft | 354 kts | 347° |
| 2026-05-07 11:50 | 35.70283 | 139.95089 | 11736 ft | 363 kts | 328° |
| 2026-05-07 11:51 | 35.72329 | 139.93283 | 12291 ft | 362 kts | 310° |
| 2026-05-07 11:51 | 35.73828 | 139.90836 | 12930 ft | 357 kts | 294° |
| 2026-05-07 11:51 | 35.74664 | 139.87985 | 13559 ft | 354 kts | 277° |
| 2026-05-07 11:51 | 35.75042 | 139.84992 | 14191 ft | 356 kts | 275° |
| 2026-05-07 11:52 | 35.75397 | 139.81960 | 14792 ft | 360 kts | 275° |
| 2026-05-07 11:52 | 35.75747 | 139.78940 | 15377 ft | 364 kts | 275° |
| 2026-05-07 11:52 | 35.76027 | 139.75823 | 15936 ft | 365 kts | 269° |
| 2026-05-07 11:52 | 35.75835 | 139.72705 | 16494 ft | 367 kts | 258° |
| 2026-05-07 11:53 | 35.75119 | 139.69689 | 17036 ft | 369 kts | 246° |
| 2026-05-07 11:53 | 35.73967 | 139.66852 | 17565 ft | 372 kts | 242° |
| 2026-05-07 11:53 | 35.72799 | 139.64128 | 18063 ft | 376 kts | 242° |
| 2026-05-07 11:53 | 35.71643 | 139.61429 | 18551 ft | 379 kts | 242° |
| 2026-05-07 11:54 | 35.70367 | 139.58440 | 19083 ft | 383 kts | 242° |
| 2026-05-07 11:54 | 35.69154 | 139.55597 | 19589 ft | 385 kts | 242° |
| 2026-05-07 11:54 | 35.67905 | 139.52664 | 20090 ft | 388 kts | 242° |
| 2026-05-07 11:54 | 35.66729 | 139.49666 | 20555 ft | 391 kts | 248° |
| 2026-05-07 11:55 | 35.65988 | 139.46432 | 21005 ft | 396 kts | 259° |
| 2026-05-07 11:55 | 35.65766 | 139.43048 | 21443 ft | 400 kts | 269° |
| 2026-05-07 11:55 | 35.65837 | 139.39613 | 21880 ft | 403 kts | 269° |
| 2026-05-07 11:55 | 35.65901 | 139.36158 | 22287 ft | 406 kts | 269° |
| 2026-05-07 11:56 | 35.65956 | 139.32829 | 22666 ft | 409 kts | 269° |
| 2026-05-07 11:56 | 35.66011 | 139.29321 | 23043 ft | 411 kts | 269° |
| 2026-05-07 11:56 | 35.66065 | 139.25797 | 23431 ft | 414 kts | 269° |
| 2026-05-07 11:56 | 35.66118 | 139.22252 | 23788 ft | 416 kts | 269° |
| 2026-05-07 11:57 | 35.66167 | 139.18728 | 24104 ft | 419 kts | 269° |
| 2026-05-07 11:57 | 35.66217 | 139.15136 | 24467 ft | 421 kts | 269° |
| 2026-05-07 11:57 | 35.66226 | 139.11535 | 24839 ft | 422 kts | 267° |
| 2026-05-07 11:57 | 35.66211 | 139.10676 | 24928 ft | 422 kts | 266° |
| 2026-05-07 11:58 | 35.66125 | 139.07016 | 25247 ft | 423 kts | 265° |
| 2026-05-07 11:58 | 35.65954 | 139.03403 | 25608 ft | 424 kts | 264° |
| 2026-05-07 11:58 | 35.65736 | 138.99786 | 25959 ft | 425 kts | 263° |
| 2026-05-07 11:58 | 35.65511 | 138.96159 | 26291 ft | 426 kts | 264° |
| 2026-05-07 11:59 | 35.65303 | 138.92518 | 26597 ft | 428 kts | 264° |
| 2026-05-07 11:59 | 35.65117 | 138.88858 | 26900 ft | 429 kts | 264° |
| 2026-05-07 11:59 | 35.64948 | 138.85192 | 27186 ft | 431 kts | 264° |
| 2026-05-07 11:59 | 35.64786 | 138.81511 | 27455 ft | 433 kts | 264° |
| 2026-05-07 12:00 | 35.64625 | 138.77807 | 27735 ft | 434 kts | 265° |
| 2026-05-07 12:00 | 35.64466 | 138.74243 | 28027 ft | 435 kts | 264° |
| 2026-05-07 12:00 | 35.64294 | 138.70528 | 28289 ft | 436 kts | 264° |
| 2026-05-07 12:00 | 35.64120 | 138.66855 | 28512 ft | 437 kts | 264° |
| 2026-05-07 12:01 | 35.63936 | 138.63117 | 28762 ft | 438 kts | 264° |
| 2026-05-07 12:01 | 35.63742 | 138.59370 | 28991 ft | 440 kts | 264° |
| 2026-05-07 12:01 | 35.63544 | 138.55615 | 29264 ft | 439 kts | 264° |
| 2026-05-07 12:01 | 35.63350 | 138.51897 | 29722 ft | 435 kts | 264° |
| 2026-05-07 12:02 | 35.63154 | 138.48196 | 30026 ft | 435 kts | 264° |
| 2026-05-07 12:02 | 35.62955 | 138.44478 | 30285 ft | 435 kts | 263° |
| 2026-05-07 12:02 | 35.62755 | 138.40765 | 30503 ft | 436 kts | 264° |
| 2026-05-07 12:02 | 35.62556 | 138.37057 | 30829 ft | 434 kts | 263° |
| 2026-05-07 12:03 | 35.62358 | 138.33407 | 31120 ft | 433 kts | 263° |
| 2026-05-07 12:03 | 35.62156 | 138.29714 | 31399 ft | 433 kts | 263° |
| 2026-05-07 12:03 | 35.61953 | 138.26035 | 31707 ft | 431 kts | 263° |
| 2026-05-07 12:03 | 35.61750 | 138.22361 | 31906 ft | 430 kts | 263° |
| 2026-05-07 12:04 | 35.61550 | 138.18738 | 31948 ft | 419 kts | 263° |
| 2026-05-07 12:04 | 35.61165 | 138.11676 | 31959 ft | 412 kts | 263° |
| 2026-05-07 12:05 | 35.60770 | 138.04664 | 31961 ft | 410 kts | 263° |
| 2026-05-07 12:05 | 35.60369 | 137.97673 | 31962 ft | 411 kts | 263° |
| 2026-05-07 12:06 | 35.59961 | 137.90685 | 31962 ft | 414 kts | 263° |
| 2026-05-07 12:06 | 35.59550 | 137.83615 | 31957 ft | 415 kts | 263° |
| 2026-05-07 12:07 | 35.59126 | 137.76541 | 31958 ft | 415 kts | 263° |
| 2026-05-07 12:07 | 35.58617 | 137.69480 | 31959 ft | 415 kts | 262° |
| 2026-05-07 12:08 | 35.58068 | 137.62421 | 31956 ft | 415 kts | 262° |
| 2026-05-07 12:08 | 35.57529 | 137.55412 | 31957 ft | 415 kts | 262° |
| 2026-05-07 12:09 | 35.56390 | 137.48512 | 31959 ft | 412 kts | 253° |
| 2026-05-07 12:09 | 35.54902 | 137.41733 | 31952 ft | 411 kts | 253° |
| 2026-05-07 12:10 | 35.53419 | 137.34952 | 31946 ft | 411 kts | 253° |
| 2026-05-07 12:10 | 35.51938 | 137.28193 | 31935 ft | 411 kts | 253° |
| 2026-05-07 12:11 | 35.50456 | 137.21480 | 31938 ft | 410 kts | 253° |
| 2026-05-07 12:11 | 35.48954 | 137.14714 | 31928 ft | 410 kts | 253° |
| 2026-05-07 12:12 | 35.47456 | 137.07976 | 31926 ft | 410 kts | 253° |
| 2026-05-07 12:12 | 35.45954 | 137.01228 | 31931 ft | 411 kts | 253° |
| 2026-05-07 12:13 | 35.44446 | 136.94475 | 31927 ft | 411 kts | 253° |
| 2026-05-07 12:13 | 35.42943 | 136.87765 | 31927 ft | 411 kts | 253° |
| 2026-05-07 12:14 | 35.41427 | 136.81013 | 31924 ft | 411 kts | 253° |
| 2026-05-07 12:14 | 35.39907 | 136.74255 | 31931 ft | 411 kts | 253° |
| 2026-05-07 12:15 | 35.38384 | 136.67507 | 31932 ft | 411 kts | 252° |
| 2026-05-07 12:15 | 35.36854 | 136.60749 | 31937 ft | 411 kts | 252° |
| 2026-05-07 12:16 | 35.35321 | 136.54011 | 31934 ft | 411 kts | 252° |
| 2026-05-07 12:16 | 35.33802 | 136.47336 | 31930 ft | 410 kts | 252° |
| 2026-05-07 12:17 | 35.32262 | 136.40615 | 31934 ft | 410 kts | 252° |
| 2026-05-07 12:17 | 35.30724 | 136.33885 | 31926 ft | 410 kts | 253° |
| 2026-05-07 12:18 | 35.29189 | 136.27170 | 31927 ft | 410 kts | 252° |
| 2026-05-07 12:18 | 35.27646 | 136.20455 | 31919 ft | 410 kts | 252° |
| 2026-05-07 12:19 | 35.26095 | 136.13737 | 31913 ft | 411 kts | 252° |
| 2026-05-07 12:19 | 35.24544 | 136.07028 | 31913 ft | 414 kts | 252° |
| 2026-05-07 12:20 | 35.22969 | 136.00242 | 31909 ft | 416 kts | 252° |
| 2026-05-07 12:20 | 35.21386 | 135.93440 | 31916 ft | 416 kts | 252° |
| 2026-05-07 12:21 | 35.19803 | 135.86643 | 31921 ft | 416 kts | 252° |
| 2026-05-07 12:21 | 35.18211 | 135.79846 | 31926 ft | 416 kts | 253° |
| 2026-05-07 12:22 | 35.16905 | 135.72999 | 31925 ft | 416 kts | 257° |
| 2026-05-07 12:22 | 35.15821 | 135.66054 | 31930 ft | 416 kts | 257° |
| 2026-05-07 12:23 | 35.14733 | 135.59109 | 31935 ft | 416 kts | 257° |
| 2026-05-07 12:23 | 35.13574 | 135.52189 | 31927 ft | 416 kts | 257° |
| 2026-05-07 12:24 | 35.12381 | 135.45275 | 31922 ft | 416 kts | 256° |
| 2026-05-07 12:24 | 35.11192 | 135.38363 | 31923 ft | 416 kts | 256° |
| 2026-05-07 12:25 | 35.10017 | 135.31501 | 31930 ft | 416 kts | 256° |
| 2026-05-07 12:25 | 35.08835 | 135.24578 | 31939 ft | 416 kts | 256° |
| 2026-05-07 12:26 | 35.07649 | 135.17671 | 31942 ft | 415 kts | 256° |
| 2026-05-07 12:26 | 35.06454 | 135.10777 | 31933 ft | 415 kts | 256° |
| 2026-05-07 12:27 | 35.05256 | 135.03899 | 31922 ft | 414 kts | 256° |
| 2026-05-07 12:27 | 35.04092 | 134.97250 | 31925 ft | 414 kts | 256° |
| 2026-05-07 12:28 | 35.02890 | 134.90372 | 31936 ft | 414 kts | 256° |
| 2026-05-07 12:28 | 35.01686 | 134.83504 | 31946 ft | 414 kts | 256° |
| 2026-05-07 12:29 | 35.00472 | 134.76639 | 31943 ft | 414 kts | 256° |
| 2026-05-07 12:29 | 34.99261 | 134.69784 | 31931 ft | 413 kts | 256° |
| 2026-05-07 12:30 | 34.98000 | 134.62996 | 31936 ft | 413 kts | 255° |
| 2026-05-07 12:30 | 34.96640 | 134.56196 | 31925 ft | 413 kts | 255° |
| 2026-05-07 12:31 | 34.95269 | 134.49410 | 31930 ft | 412 kts | 255° |
| 2026-05-07 12:31 | 34.93916 | 134.42627 | 31922 ft | 411 kts | 255° |
| 2026-05-07 12:32 | 34.92576 | 134.35855 | 31911 ft | 411 kts | 255° |
| 2026-05-07 12:32 | 34.91240 | 134.29131 | 31920 ft | 411 kts | 255° |
| 2026-05-07 12:33 | 34.89211 | 134.18981 | 31923 ft | 411 kts | 255° |
| 2026-05-07 12:33 | 34.87857 | 134.12219 | 31930 ft | 411 kts | 255° |
| 2026-05-07 12:34 | 34.86480 | 134.05441 | 31949 ft | 417 kts | 255° |
| 2026-05-07 12:34 | 34.85063 | 133.98475 | 31944 ft | 430 kts | 255° |
| 2026-05-07 12:35 | 34.83634 | 133.91435 | 31938 ft | 433 kts | 255° |
| 2026-05-07 12:35 | 34.82184 | 133.84323 | 31946 ft | 433 kts | 255° |
| 2026-05-07 12:36 | 34.80710 | 133.77227 | 31946 ft | 432 kts | 255° |
| 2026-05-07 12:36 | 34.79209 | 133.70143 | 31946 ft | 433 kts | 255° |
| 2026-05-07 12:37 | 34.77701 | 133.63060 | 31946 ft | 432 kts | 255° |
| 2026-05-07 12:37 | 34.76194 | 133.55978 | 31938 ft | 432 kts | 255° |
| 2026-05-07 12:38 | 34.74698 | 133.48946 | 31939 ft | 432 kts | 255° |
| 2026-05-07 12:38 | 34.73959 | 133.45468 | 31937 ft | 418 kts | 254° |
| 2026-05-07 12:38 | 34.73234 | 133.42076 | 31946 ft | 412 kts | 254° |
| 2026-05-07 12:39 | 34.71797 | 133.35353 | 31932 ft | 410 kts | 254° |
| 2026-05-07 12:39 | 34.70359 | 133.28666 | 31947 ft | 409 kts | 254° |
| 2026-05-07 12:40 | 34.68913 | 133.21969 | 31940 ft | 409 kts | 254° |
| 2026-05-07 12:40 | 34.67475 | 133.15323 | 31935 ft | 409 kts | 254° |
| 2026-05-07 12:41 | 34.66030 | 133.08640 | 31944 ft | 409 kts | 254° |
| 2026-05-07 12:41 | 34.64581 | 133.01950 | 31944 ft | 409 kts | 254° |
| 2026-05-07 12:42 | 34.63130 | 132.95268 | 31946 ft | 409 kts | 254° |
| 2026-05-07 12:42 | 34.61671 | 132.88585 | 31944 ft | 409 kts | 254° |
| 2026-05-07 12:43 | 34.60202 | 132.81912 | 31943 ft | 409 kts | 254° |
| 2026-05-07 12:43 | 34.58746 | 132.75290 | 31944 ft | 409 kts | 254° |
| 2026-05-07 12:44 | 34.57277 | 132.68630 | 31935 ft | 408 kts | 254° |
| 2026-05-07 12:44 | 34.55803 | 132.61983 | 31930 ft | 408 kts | 254° |
| 2026-05-07 12:45 | 34.54330 | 132.55326 | 31934 ft | 408 kts | 254° |
| 2026-05-07 12:45 | 34.52861 | 132.48691 | 31928 ft | 408 kts | 254° |
| 2026-05-07 12:46 | 34.51391 | 132.42097 | 31928 ft | 408 kts | 254° |
| 2026-05-07 12:46 | 34.49899 | 132.35461 | 31924 ft | 408 kts | 254° |
| 2026-05-07 12:47 | 34.48440 | 132.28974 | 31925 ft | 408 kts | 254° |
| 2026-05-07 12:47 | 34.46951 | 132.22334 | 31922 ft | 409 kts | 254° |
| 2026-05-07 12:48 | 34.45458 | 132.15694 | 31935 ft | 409 kts | 254° |
| 2026-05-07 12:48 | 34.43963 | 132.09083 | 31936 ft | 409 kts | 254° |
| 2026-05-07 12:49 | 34.42460 | 132.02446 | 31926 ft | 408 kts | 254° |
| 2026-05-07 12:49 | 34.40961 | 131.95837 | 31921 ft | 408 kts | 254° |
| 2026-05-07 12:50 | 34.39449 | 131.89209 | 31924 ft | 408 kts | 254° |
| 2026-05-07 12:50 | 34.37927 | 131.82557 | 31270 ft | 413 kts | 254° |
| 2026-05-07 12:51 | 34.37156 | 131.79198 | 29993 ft | 424 kts | 254° |
| 2026-05-07 12:51 | 34.36367 | 131.75767 | 29355 ft | 419 kts | 254° |
| 2026-05-07 12:51 | 34.35594 | 131.72406 | 28794 ft | 412 kts | 254° |
| 2026-05-07 12:51 | 34.34827 | 131.69088 | 28235 ft | 406 kts | 254° |
| 2026-05-07 12:52 | 34.34072 | 131.65826 | 27681 ft | 400 kts | 254° |
| 2026-05-07 12:52 | 34.33328 | 131.62611 | 27142 ft | 394 kts | 255° |
| 2026-05-07 12:52 | 34.32598 | 131.59441 | 26609 ft | 388 kts | 255° |
| 2026-05-07 12:52 | 34.31876 | 131.56316 | 26089 ft | 383 kts | 255° |
| 2026-05-07 12:53 | 34.31165 | 131.53245 | 25587 ft | 377 kts | 255° |
| 2026-05-07 12:53 | 34.30463 | 131.50213 | 25092 ft | 371 kts | 255° |
| 2026-05-07 12:53 | 34.29779 | 131.47274 | 24624 ft | 365 kts | 255° |
| 2026-05-07 12:53 | 34.29097 | 131.44352 | 24157 ft | 359 kts | 255° |
| 2026-05-07 12:54 | 34.28420 | 131.41457 | 23717 ft | 354 kts | 255° |
| 2026-05-07 12:54 | 34.27754 | 131.38608 | 23294 ft | 351 kts | 254° |
| 2026-05-07 12:54 | 34.27096 | 131.35789 | 22873 ft | 346 kts | 254° |
| 2026-05-07 12:54 | 34.26449 | 131.33008 | 22464 ft | 341 kts | 254° |
| 2026-05-07 12:55 | 34.25821 | 131.30311 | 22078 ft | 336 kts | 254° |
| 2026-05-07 12:55 | 34.25191 | 131.27611 | 21670 ft | 332 kts | 254° |
| 2026-05-07 12:55 | 34.24578 | 131.24987 | 21278 ft | 328 kts | 253° |
| 2026-05-07 12:55 | 34.23970 | 131.22412 | 20891 ft | 324 kts | 253° |
| 2026-05-07 12:56 | 34.23362 | 131.19841 | 20495 ft | 321 kts | 253° |
| 2026-05-07 12:56 | 34.22756 | 131.17264 | 20089 ft | 317 kts | 253° |
| 2026-05-07 12:56 | 34.22158 | 131.14716 | 19688 ft | 315 kts | 253° |
| 2026-05-07 12:56 | 34.21560 | 131.12184 | 19284 ft | 312 kts | 253° |
| 2026-05-07 12:57 | 34.20966 | 131.09669 | 18880 ft | 310 kts | 253° |
| 2026-05-07 12:57 | 34.20376 | 131.07167 | 18470 ft | 308 kts | 253° |
| 2026-05-07 12:57 | 34.19791 | 131.04681 | 18069 ft | 308 kts | 253° |
| 2026-05-07 12:57 | 34.19195 | 131.02159 | 17928 ft | 316 kts | 252° |
| 2026-05-07 12:58 | 34.18326 | 130.99680 | 17949 ft | 327 kts | 242° |
| 2026-05-07 12:58 | 34.17253 | 130.97235 | 17847 ft | 332 kts | 242° |
| 2026-05-07 12:58 | 34.16162 | 130.94785 | 17386 ft | 329 kts | 241° |
| 2026-05-07 12:58 | 34.15100 | 130.92400 | 16938 ft | 326 kts | 242° |
| 2026-05-07 12:59 | 34.14019 | 130.89976 | 16484 ft | 324 kts | 242° |
| 2026-05-07 12:59 | 34.12972 | 130.87652 | 16045 ft | 322 kts | 241° |
| 2026-05-07 12:59 | 34.11910 | 130.85275 | 15591 ft | 321 kts | 242° |
| 2026-05-07 12:59 | 34.10846 | 130.82917 | 15145 ft | 319 kts | 242° |
| 2026-05-07 13:00 | 34.09781 | 130.80571 | 14691 ft | 319 kts | 242° |
| 2026-05-07 13:00 | 34.08714 | 130.78227 | 14239 ft | 317 kts | 242° |
| 2026-05-07 13:00 | 34.07654 | 130.75906 | 13781 ft | 312 kts | 242° |
| 2026-05-07 13:00 | 34.06623 | 130.73662 | 13332 ft | 301 kts | 242° |
| 2026-05-07 13:01 | 34.05629 | 130.71500 | 12890 ft | 290 kts | 242° |
| 2026-05-07 13:01 | 34.04663 | 130.69409 | 12434 ft | 280 kts | 242° |
| 2026-05-07 13:01 | 34.03726 | 130.67386 | 11977 ft | 273 kts | 242° |
| 2026-05-07 13:01 | 34.02812 | 130.65419 | 11534 ft | 265 kts | 242° |
| 2026-05-07 13:02 | 34.01931 | 130.63520 | 11088 ft | 261 kts | 242° |
| 2026-05-07 13:02 | 34.01059 | 130.61625 | 10636 ft | 255 kts | 242° |
| 2026-05-07 13:02 | 34.00215 | 130.59770 | 10183 ft | 250 kts | 242° |
| 2026-05-07 13:02 | 33.99388 | 130.57936 | 9733 ft | 248 kts | 242° |
| 2026-05-07 13:03 | 33.98571 | 130.56107 | 9282 ft | 247 kts | 241° |
| 2026-05-07 13:03 | 33.97763 | 130.54279 | 8826 ft | 247 kts | 242° |
| 2026-05-07 13:03 | 33.96953 | 130.52431 | 8381 ft | 250 kts | 242° |
| 2026-05-07 13:03 | 33.96139 | 130.50567 | 7930 ft | 253 kts | 242° |
| 2026-05-07 13:04 | 33.95323 | 130.48690 | 7481 ft | 254 kts | 241° |
| 2026-05-07 13:04 | 33.94501 | 130.46800 | 7029 ft | 255 kts | 242° |
| 2026-05-07 13:04 | 33.93680 | 130.44899 | 6582 ft | 257 kts | 242° |
| 2026-05-07 13:04 | 33.92868 | 130.43016 | 6134 ft | 257 kts | 242° |
| 2026-05-07 13:05 | 33.92070 | 130.41158 | 5982 ft | 239 kts | 242° |
| 2026-05-07 13:05 | 33.91342 | 130.39454 | 5806 ft | 223 kts | 242° |
| 2026-05-07 13:05 | 33.90642 | 130.37811 | 5451 ft | 218 kts | 242° |
| 2026-05-07 13:05 | 33.89954 | 130.36203 | 5099 ft | 215 kts | 242° |
| 2026-05-07 13:06 | 33.89269 | 130.34618 | 4728 ft | 213 kts | 242° |
| 2026-05-07 13:06 | 33.88580 | 130.33034 | 4329 ft | 215 kts | 242° |
| 2026-05-07 13:06 | 33.88117 | 130.31979 | 4064 ft | 216 kts | 242° |
| 2026-05-07 13:06 | 33.87406 | 130.30372 | 3661 ft | 219 kts | 242° |
| 2026-05-07 13:07 | 33.86683 | 130.28754 | 3257 ft | 220 kts | 242° |
| 2026-05-07 13:07 | 33.85954 | 130.27141 | 2998 ft | 217 kts | 241° |
| 2026-05-07 13:07 | 33.84486 | 130.25537 | 2990 ft | 224 kts | 201° |
| 2026-05-07 13:07 | 33.82966 | 130.25079 | 2990 ft | 227 kts | 193° |
| 2026-05-07 13:08 | 33.81413 | 130.24751 | 2989 ft | 226 kts | 192° |
| 2026-05-07 13:08 | 33.80400 | 130.24549 | 2989 ft | 227 kts | 192° |
| 2026-05-07 13:08 | 33.78844 | 130.24237 | 2990 ft | 228 kts | 192° |
| 2026-05-07 13:08 | 33.77302 | 130.23927 | 2988 ft | 228 kts | 192° |
| 2026-05-07 13:09 | 33.75740 | 130.23613 | 2991 ft | 228 kts | 192° |
| 2026-05-07 13:09 | 33.74217 | 130.23321 | 2986 ft | 221 kts | 187° |
| 2026-05-07 13:09 | 33.72352 | 130.23893 | 2978 ft | 224 kts | 145° |
| 2026-05-07 13:09 | 33.71563 | 130.24747 | 2740 ft | 229 kts | 135° |
| 2026-05-07 13:10 | 33.70503 | 130.26196 | 2337 ft | 231 kts | 132° |
| 2026-05-07 13:10 | 33.69459 | 130.27668 | 2025 ft | 228 kts | 131° |
| 2026-05-07 13:10 | 33.68453 | 130.29064 | 1993 ft | 216 kts | 131° |
| 2026-05-07 13:10 | 33.67488 | 130.30402 | 1991 ft | 205 kts | 131° |
| 2026-05-07 13:11 | 33.66577 | 130.31662 | 1992 ft | 197 kts | 132° |
| 2026-05-07 13:11 | 33.65681 | 130.32900 | 1989 ft | 196 kts | 134° |
| 2026-05-07 13:11 | 33.64689 | 130.33985 | 1991 ft | 196 kts | 142° |
| 2026-05-07 13:11 | 33.63611 | 130.34978 | 1993 ft | 195 kts | 146° |
| 2026-05-07 13:12 | 33.62486 | 130.35891 | 1991 ft | 195 kts | 147° |
| 2026-05-07 13:12 | 33.61347 | 130.36783 | 1988 ft | 196 kts | 148° |
| 2026-05-07 13:12 | 33.60201 | 130.37672 | 1746 ft | 195 kts | 147° |
| 2026-05-07 13:12 | 33.59075 | 130.38535 | 1570 ft | 184 kts | 147° |
| 2026-05-07 13:13 | 33.58035 | 130.39306 | 1484 ft | 170 kts | 149° |
| 2026-05-07 13:13 | 33.57054 | 130.39994 | 1495 ft | 164 kts | 150° |
| 2026-05-07 13:13 | 33.56076 | 130.40667 | 1497 ft | 160 kts | 149° |
| 2026-05-07 13:13 | 33.55116 | 130.41321 | 1486 ft | 157 kts | 149° |
| 2026-05-07 13:14 | 33.54160 | 130.41965 | 1487 ft | 157 kts | 149° |
| 2026-05-07 13:14 | 33.53205 | 130.42604 | 1507 ft | 157 kts | 149° |
| 2026-05-07 13:14 | 33.52305 | 130.43310 | 1570 ft | 156 kts | 135° |
| 2026-05-07 13:14 | 33.51749 | 130.44418 | 1603 ft | 160 kts | 105° |
| 2026-05-07 13:15 | 33.51832 | 130.45703 | 1439 ft | 156 kts | 67° |
| 2026-05-07 13:15 | 33.52355 | 130.46876 | 961 ft | 160 kts | 57° |
| 2026-05-07 13:15 | 33.53080 | 130.47838 | 896 ft | 155 kts | 36° |
| 2026-05-07 13:15 | 33.54116 | 130.48038 | 986 ft | 162 kts | 343° |
| 2026-05-07 13:16 | 33.55090 | 130.47444 | 658 ft | 159 kts | 333° |
| 2026-05-07 13:16 | 33.56057 | 130.46814 | 416 ft | 157 kts | 330° |
| 2026-05-07 13:16 | 33.57000 | 130.46149 | 184 ft | 157 kts | 331° |
| 2026-05-07 13:16 | 33.57873 | 130.45561 | 42 ft | 144 kts | 331° |
| 2026-05-07 13:17 | 33.58488 | 130.45142 | 32 ft | 60 kts | 330° |
| 2026-05-07 13:17 | 33.58770 | 130.44967 | 31 ft | 34 kts | 343° |
| 2026-05-07 13:17 | 33.58918 | 130.44939 | 29 ft | 13 kts | 356° |
| 2026-05-07 13:17 | 33.59016 | 130.44938 | 26 ft | 15 kts | 0° |
| 2026-05-07 13:18 | 33.59125 | 130.44930 | 29 ft | 16 kts | 340° |
| 2026-05-07 13:18 | 33.59221 | 130.44867 | 26 ft | 16 kts | 333° |
| 2026-05-07 13:18 | 33.59337 | 130.44853 | 25 ft | 18 kts | 357° |
| 2026-05-07 13:18 | 33.59451 | 130.44808 | 25 ft | 18 kts | 330° |
| 2026-05-07 13:19 | 33.59561 | 130.44733 | 28 ft | 19 kts | 330° |
| 2026-05-07 13:19 | 33.59678 | 130.44654 | 25 ft | 20 kts | 329° |
| 2026-05-07 13:19 | 33.59776 | 130.44585 | 27 ft | 15 kts | 330° |
| 2026-05-07 13:19 | 33.59855 | 130.44541 | 27 ft | 10 kts | 4° |
| 2026-05-07 13:20 | 33.59891 | 130.44593 | 25 ft | 7 kts | 61° |
| 2026-05-07 13:20 | 33.59906 | 130.44625 | 25 ft | 0 kts | 61° |